Time;durP1;ratioP1;P1;durP2;ratioP2;P2;SDS_P1;SDS_P2;PMS_P1;PMS_P2;Temp;Humidity;BMP_temperature;BMP_pressure;BME280_temperature;BME280_humidity;BME280_pressure;Samples;Min_cycle;Max_cycle;Signal;HPM_P1;HPM_P2
2022/03/06 00:01:45;;;;;;;41.10;29.08;;;9.60;71.20;;;;;;5074684;28;20462;-60
2022/03/06 00:04:11;;;;;;;41.83;28.70;;;9.50;71.00;;;;;;5074445;28;20053;-62
2022/03/06 00:06:37;;;;;;;43.92;29.55;;;9.50;70.90;;;;;;5074903;28;20560;-60
2022/03/06 00:09:03;;;;;;;43.90;28.35;;;9.50;71.00;;;;;;5074904;28;20032;-60
2022/03/06 00:11:29;;;;;;;41.97;29.05;;;9.50;70.90;;;;;;5074636;28;20064;-60
2022/03/06 00:13:55;;;;;;;39.97;27.90;;;9.50;71.10;;;;;;5073837;28;20027;-60
2022/03/06 00:16:20;;;;;;;40.65;27.92;;;9.40;71.00;;;;;;5074723;28;20036;-60
2022/03/06 00:18:46;;;;;;;42.65;28.23;;;9.40;71.10;;;;;;5074223;28;20017;-61
2022/03/06 00:21:13;;;;;;;43.95;29.60;;;9.40;71.10;;;;;;5074265;28;20022;-60
2022/03/06 00:23:39;;;;;;;39.97;28.02;;;9.30;71.10;;;;;;5074564;28;20055;-61
2022/03/06 00:26:05;;;;;;;44.90;29.10;;;9.30;70.90;;;;;;5074447;28;20071;-60
2022/03/06 00:28:31;;;;;;;39.47;28.58;;;9.30;71.00;;;;;;5074534;28;20472;-60
2022/03/06 00:30:56;;;;;;;45.03;29.73;;;9.30;70.90;;;;;;5074163;28;20474;-60
2022/03/06 00:33:22;;;;;;;47.17;29.58;;;9.30;70.90;;;;;;5074206;28;20074;-61
2022/03/06 00:35:47;;;;;;;40.90;28.50;;;9.20;70.80;;;;;;5074244;28;20032;-60
2022/03/06 00:38:13;;;;;;;40.28;29.35;;;9.20;70.90;;;;;;5074179;28;20122;-61
2022/03/06 00:40:41;;;;;;;41.45;28.65;;;9.20;70.90;;;;;;5074360;28;20035;-61
2022/03/06 00:43:07;;;;;;;42.05;28.73;;;9.20;71.10;;;;;;5073921;28;20024;-60
2022/03/06 00:45:33;;;;;;;40.95;28.70;;;9.10;70.70;;;;;;5074071;28;20036;-61
2022/03/06 00:47:58;;;;;;;41.15;29.33;;;9.10;70.60;;;;;;5073737;28;20027;-60
2022/03/06 00:50:24;;;;;;;39.67;27.50;;;9.10;70.30;;;;;;5074098;28;20033;-60
2022/03/06 00:52:52;;;;;;;43.13;28.45;;;9.10;70.20;;;;;;5073931;28;20041;-61
2022/03/06 00:55:18;;;;;;;41.42;28.70;;;9.10;69.80;;;;;;5074044;28;20470;-60
2022/03/06 00:57:44;;;;;;;44.92;29.42;;;9.10;69.80;;;;;;5073748;28;20420;-61
2022/03/06 01:00:10;;;;;;;40.88;28.67;;;9.10;69.80;;;;;;5073638;28;20025;-61
2022/03/06 01:02:36;;;;;;;41.80;29.00;;;9.00;69.40;;;;;;5073403;28;20051;-60
2022/03/06 01:05:02;;;;;;;42.13;27.40;;;9.00;69.40;;;;;;5073726;28;20442;-60
2022/03/06 01:07:28;;;;;;;43.45;30.10;;;9.00;69.40;;;;;;5073637;28;20020;-61
2022/03/06 01:09:54;;;;;;;46.20;29.80;;;8.90;69.40;;;;;;5073270;28;20024;-60
2022/03/06 01:12:20;;;;;;;45.40;29.33;;;9.00;69.30;;;;;;5073833;28;20092;-60
2022/03/06 01:14:45;;;;;;;41.97;27.65;;;8.90;69.30;;;;;;5073626;28;20029;-60
2022/03/06 01:17:11;;;;;;;42.20;27.50;;;8.80;69.20;;;;;;5073530;28;20048;-59
2022/03/06 01:19:36;;;;;;;44.08;29.00;;;8.80;69.20;;;;;;5073389;28;20028;-60
2022/03/06 01:22:02;;;;;;;43.47;28.35;;;8.80;69.10;;;;;;5073423;28;20027;-60
2022/03/06 01:24:28;;;;;;;42.53;28.85;;;8.90;69.00;;;;;;5073276;28;20389;-60
2022/03/06 01:26:53;;;;;;;40.47;28.17;;;8.80;69.50;;;;;;5073480;28;20024;-60
2022/03/06 01:29:22;;;;;;;37.38;28.13;;;8.80;68.90;;;;;;5073263;28;20024;-60
2022/03/06 01:31:48;;;;;;;44.33;28.45;;;8.80;68.90;;;;;;5073045;28;20029;-60
2022/03/06 01:34:13;;;;;;;40.78;28.70;;;8.80;68.90;;;;;;5072999;28;20024;-61
2022/03/06 01:36:39;;;;;;;42.90;29.05;;;8.70;68.80;;;;;;5073307;28;20038;-60
2022/03/06 01:39:05;;;;;;;43.70;28.85;;;8.70;68.80;;;;;;5054979;28;20439;-60
2022/03/06 01:41:35;;;;;;;41.38;28.83;;;8.70;68.90;;;;;;5073484;28;20021;-60
2022/03/06 01:44:01;;;;;;;39.22;27.35;;;8.70;68.90;;;;;;5073012;28;20024;-60
2022/03/06 01:46:27;;;;;;;38.83;28.65;;;8.70;68.80;;;;;;5072927;28;20561;-60
2022/03/06 01:48:52;;;;;;;41.33;27.95;;;8.60;68.80;;;;;;5073270;28;20126;-60
2022/03/06 01:51:18;;;;;;;41.88;27.58;;;8.60;68.80;;;;;;5073165;28;20028;-60
2022/03/06 01:53:44;;;;;;;38.83;27.50;;;8.60;68.60;;;;;;5072866;28;20747;-60
2022/03/06 01:56:12;;;;;;;37.85;28.08;;;8.60;68.70;;;;;;5073100;28;20056;-60
2022/03/06 01:58:38;;;;;;;43.65;29.58;;;8.60;68.60;;;;;;5073081;28;20028;-60
2022/03/06 02:01:03;;;;;;;40.28;28.77;;;8.60;68.50;;;;;;5072737;28;20028;-60
2022/03/06 02:03:29;;;;;;;40.22;28.25;;;8.50;68.60;;;;;;5073111;28;20021;-60
2022/03/06 02:05:55;;;;;;;36.75;27.33;;;8.40;68.80;;;;;;5073372;28;20396;-60
2022/03/06 02:08:20;;;;;;;38.65;28.58;;;8.50;68.60;;;;;;5072999;28;20056;-60
2022/03/06 02:10:48;;;;;;;38.55;28.33;;;8.50;68.50;;;;;;5072791;28;20043;-62
2022/03/06 02:13:14;;;;;;;37.10;26.98;;;8.40;68.30;;;;;;5072941;28;20024;-61
2022/03/06 02:15:40;;;;;;;39.65;27.63;;;8.40;68.40;;;;;;5072581;28;20028;-61
2022/03/06 02:18:05;;;;;;;39.72;28.05;;;8.40;68.40;;;;;;5072989;28;20060;-61
2022/03/06 02:20:31;;;;;;;41.22;27.90;;;8.40;68.30;;;;;;5072632;28;20021;-61
2022/03/06 02:22:58;;;;;;;41.75;27.80;;;8.30;68.30;;;;;;5072881;28;20032;-62
2022/03/06 02:25:25;;;;;;;38.90;28.52;;;8.30;68.30;;;;;;5072901;28;20480;-61
2022/03/06 02:27:53;;;;;;;41.63;28.13;;;8.30;68.20;;;;;;5072771;28;20226;-62
2022/03/06 02:30:23;;;;;;;39.63;28.23;;;8.40;68.30;;;;;;5072295;28;20038;-61
2022/03/06 02:32:50;;;;;;;42.40;27.92;;;8.30;68.20;;;;;;5072853;28;20038;-61
2022/03/06 02:35:17;;;;;;;42.33;26.80;;;8.30;68.10;;;;;;5072487;28;20036;-61
2022/03/06 02:37:43;;;;;;;39.55;28.13;;;8.30;68.30;;;;;;5075645;28;20095;-62
2022/03/06 02:40:11;;;;;;;39.03;25.80;;;8.20;68.10;;;;;;5076356;28;20033;-62
2022/03/06 02:42:43;;;;;;;36.03;25.85;;;8.20;68.00;;;;;;5076480;28;20028;-61
2022/03/06 02:45:15;;;;;;;;;;;8.20;68.10;;;;;;5076412;28;20153;-61
2022/03/06 02:47:41;;;;;;;40.67;26.70;;;8.20;68.10;;;;;;5076398;28;19911;-60
2022/03/06 02:50:10;;;;;;;41.22;26.63;;;8.20;68.20;;;;;;5076128;28;20024;-61
2022/03/06 02:52:36;;;;;;;40.78;27.65;;;8.10;68.20;;;;;;5076286;28;20029;-61
2022/03/06 02:55:03;;;;;;;40.40;27.85;;;8.10;68.30;;;;;;5076263;28;20028;-62
2022/03/06 02:57:29;;;;;;;40.50;26.70;;;8.00;68.30;;;;;;5076239;28;20029;-61
2022/03/06 02:59:55;;;;;;;39.00;26.33;;;8.00;68.50;;;;;;5075657;28;20023;-62
2022/03/06 03:02:20;;;;;;;36.25;26.80;;;8.00;68.30;;;;;;5076088;28;20028;-61
2022/03/06 03:04:46;;;;;;;37.55;25.60;;;8.00;68.50;;;;;;5076009;28;20024;-59
2022/03/06 03:07:12;;;;;;;38.97;26.85;;;8.00;68.50;;;;;;5076096;28;20025;-61
2022/03/06 03:09:38;;;;;;;35.97;24.67;;;8.00;68.50;;;;;;5079187;28;20580;-61
2022/03/06 03:12:04;;;;;;;38.45;26.33;;;7.80;68.60;;;;;;5096165;28;20070;-61
2022/03/06 03:14:33;;;;;;;36.20;25.90;;;7.90;68.80;;;;;;5095098;28;20020;-61
2022/03/06 03:17:07;;;;;;;35.67;24.65;;;7.80;68.80;;;;;;5095948;28;20020;-61
2022/03/06 03:19:33;;;;;;;35.38;24.65;;;7.80;68.90;;;;;;5096075;28;20020;-61
2022/03/06 03:21:59;;;;;;;38.45;25.80;;;7.90;68.70;;;;;;5095561;28;20107;-60
2022/03/06 03:24:25;;;;;;;38.53;24.23;;;7.90;68.70;;;;;;5096040;28;20040;-61
2022/03/06 03:26:51;;;;;;;37.63;25.13;;;7.90;68.70;;;;;;5096075;28;20028;-60
2022/03/06 03:29:16;;;;;;;34.72;25.20;;;7.80;68.70;;;;;;5095740;28;20047;-60
2022/03/06 03:31:42;;;;;;;35.28;24.95;;;7.80;68.80;;;;;;5095648;28;20484;-61
2022/03/06 03:34:08;;;;;;;33.42;23.67;;;7.80;68.80;;;;;;5095694;28;20087;-62
2022/03/06 03:36:34;;;;;;;34.95;24.10;;;7.80;68.80;;;;;;5095731;28;20055;-61
2022/03/06 03:38:59;;;;;;;36.42;25.13;;;7.80;68.80;;;;;;5096237;28;20031;-61
2022/03/06 03:41:25;;;;;;;35.22;24.73;;;7.80;68.80;;;;;;5095641;28;20047;-61
2022/03/06 03:43:52;;;;;;;34.78;24.10;;;7.80;68.80;;;;;;5095395;28;20034;-61
2022/03/06 03:46:18;;;;;;;35.13;25.38;;;7.70;68.90;;;;;;5095352;28;20350;-60
2022/03/06 03:48:44;;;;;;;38.05;25.75;;;7.70;69.00;;;;;;5094464;28;20020;-64
2022/03/06 03:51:10;;;;;;;36.50;24.98;;;7.70;68.90;;;;;;5095460;28;20040;-62
2022/03/06 03:53:35;;;;;;;36.42;24.58;;;7.70;68.90;;;;;;5095409;28;20016;-61
2022/03/06 03:56:01;;;;;;;33.20;23.92;;;7.70;68.90;;;;;;5095373;28;20078;-60
2022/03/06 03:58:27;;;;;;;35.90;24.25;;;7.70;69.10;;;;;;5095034;28;20594;-62
2022/03/06 04:00:55;;;;;;;36.40;25.40;;;7.60;69.10;;;;;;5094202;28;20111;-61
2022/03/06 04:03:21;;;;;;;33.38;24.70;;;7.60;69.20;;;;;;5093089;28;20031;-61
2022/03/06 04:05:47;;;;;;;32.55;24.05;;;7.60;69.20;;;;;;5076752;28;20036;-60
2022/03/06 04:08:13;;;;;;;35.72;24.42;;;7.60;69.20;;;;;;5094563;28;20077;-61
2022/03/06 04:10:39;;;;;;;32.03;23.50;;;7.60;69.10;;;;;;5094472;28;20484;-61
2022/03/06 04:13:04;;;;;;;40.13;25.70;;;7.60;69.20;;;;;;5094771;28;20518;-62
2022/03/06 04:15:30;;;;;;;34.50;23.88;;;7.50;69.20;;;;;;5094493;28;20035;-61
2022/03/06 04:17:55;;;;;;;33.55;23.67;;;7.50;69.20;;;;;;5093260;28;20024;-62
2022/03/06 04:20:21;;;;;;;33.13;23.73;;;7.40;69.30;;;;;;5094018;28;20020;-62
2022/03/06 04:22:47;;;;;;;30.27;23.17;;;7.40;69.50;;;;;;5094285;28;20028;-61
2022/03/06 04:25:12;;;;;;;32.92;23.58;;;7.40;69.40;;;;;;5094672;28;20468;-61
2022/03/06 04:27:38;;;;;;;31.23;23.58;;;7.30;69.50;;;;;;5093894;28;20091;-60
2022/03/06 04:30:05;;;;;;;30.17;22.23;;;7.30;69.60;;;;;;5094507;28;20035;-61
2022/03/06 04:32:31;;;;;;;35.88;24.02;;;7.30;69.30;;;;;;5094203;28;20020;-61
2022/03/06 04:34:56;;;;;;;32.47;24.15;;;7.40;69.30;;;;;;5094027;28;20377;-62
2022/03/06 04:37:22;;;;;;;34.85;24.35;;;7.30;69.60;;;;;;5094612;28;20020;-61
2022/03/06 04:39:48;;;;;;;31.77;24.10;;;7.30;69.60;;;;;;5093390;28;20024;-60
2022/03/06 04:42:13;;;;;;;35.85;24.52;;;7.30;69.50;;;;;;5075513;28;20036;-61
2022/03/06 04:44:39;;;;;;;32.60;24.13;;;7.20;69.50;;;;;;5093904;28;20027;-61
2022/03/06 04:47:05;;;;;;;37.78;25.02;;;7.30;69.60;;;;;;5093864;28;20032;-60
2022/03/06 04:49:31;;;;;;;34.95;24.92;;;7.20;69.40;;;;;;5093813;28;20024;-61
2022/03/06 04:51:57;;;;;;;31.60;23.35;;;7.20;69.60;;;;;;5093705;28;20087;-60
2022/03/06 04:54:22;;;;;;;32.50;23.63;;;7.20;69.50;;;;;;5093533;28;20472;-61
2022/03/06 04:56:48;;;;;;;35.10;24.48;;;7.10;69.80;;;;;;5094106;28;20396;-60
2022/03/06 04:59:13;;;;;;;37.30;24.45;;;7.10;69.70;;;;;;5093478;28;20491;-61
2022/03/06 05:01:39;;;;;;;34.78;24.23;;;7.00;69.90;;;;;;5093286;28;20024;-60
2022/03/06 05:04:04;;;;;;;31.55;21.52;;;7.00;69.90;;;;;;5093133;28;20457;-60
2022/03/06 05:06:30;;;;;;;34.10;22.65;;;6.90;70.10;;;;;;5094012;28;20121;-60
2022/03/06 05:08:56;;;;;;;27.73;20.70;;;6.90;70.20;;;;;;5092554;28;20846;-60
2022/03/06 05:11:23;;;;;;;32.15;21.92;;;6.90;70.10;;;;;;5075810;28;20499;-61
2022/03/06 05:13:48;;;;;;;31.13;23.08;;;6.90;70.00;;;;;;5093161;28;20022;-61
2022/03/06 05:16:14;;;;;;;29.90;21.95;;;6.90;70.00;;;;;;5074388;28;20384;-61
2022/03/06 05:18:40;;;;;;;29.50;22.15;;;7.00;69.70;;;;;;5093120;28;20028;-60
2022/03/06 05:21:05;;;;;;;28.25;21.30;;;6.90;69.80;;;;;;5075780;28;20109;-61
2022/03/06 05:23:31;;;;;;;30.13;22.35;;;6.90;69.60;;;;;;5092905;28;20077;-60
2022/03/06 05:25:57;;;;;;;27.25;20.20;;;6.90;69.70;;;;;;5093561;28;20431;-60
2022/03/06 05:28:24;;;;;;;27.40;21.70;;;6.90;69.50;;;;;;5093007;28;20119;-62
2022/03/06 05:30:50;;;;;;;29.25;21.13;;;6.80;69.70;;;;;;5092506;28;20082;-61
2022/03/06 05:33:15;;;;;;;28.73;21.92;;;6.80;69.60;;;;;;5093056;28;20207;-61
2022/03/06 05:35:41;;;;;;;29.52;21.75;;;6.70;69.70;;;;;;5093232;28;20047;-61
2022/03/06 05:38:07;;;;;;;27.02;20.60;;;6.70;69.60;;;;;;5092705;28;20557;-61
2022/03/06 05:40:33;;;;;;;29.55;21.67;;;6.80;69.50;;;;;;5091826;28;20024;-62
2022/03/06 05:42:58;;;;;;;29.27;21.17;;;6.80;69.30;;;;;;5092672;28;20028;-61
2022/03/06 05:45:24;;;;;;;26.67;20.90;;;6.80;69.50;;;;;;5092699;28;20056;-62
2022/03/06 05:47:49;;;;;;;30.58;21.88;;;6.70;69.80;;;;;;5093215;28;20086;-61
2022/03/06 05:50:15;;;;;;;27.33;21.17;;;6.70;69.70;;;;;;5093016;28;20092;-61
2022/03/06 05:52:40;;;;;;;27.42;21.45;;;6.60;69.90;;;;;;5092703;28;20103;-62
2022/03/06 05:55:07;;;;;;;27.40;20.02;;;6.60;69.90;;;;;;5092864;28;20024;-61
2022/03/06 05:57:33;;;;;;;27.92;21.13;;;6.60;69.90;;;;;;5075005;28;20024;-61
2022/03/06 05:59:59;;;;;;;25.38;20.35;;;6.70;69.80;;;;;;5092692;28;20027;-61
2022/03/06 06:02:24;;;;;;;29.90;20.98;;;6.70;69.60;;;;;;5082908;28;20028;-61
2022/03/06 06:04:50;;;;;;;26.25;20.05;;;6.60;69.60;;;;;;5092409;28;20036;-61
2022/03/06 06:07:16;;;;;;;27.38;19.80;;;6.60;69.80;;;;;;5091214;28;20107;-62
2022/03/06 06:09:42;;;;;;;25.13;20.20;;;6.60;69.90;;;;;;5092743;28;20036;-61
2022/03/06 06:12:08;;;;;;;24.15;19.27;;;6.60;69.90;;;;;;5094509;28;20430;-61
2022/03/06 06:14:34;;;;;;;23.73;19.20;;;6.50;69.90;;;;;;5096219;28;20069;-61
2022/03/06 06:17:00;;;;;;;26.40;18.88;;;6.50;69.80;;;;;;5097116;28;20028;-62
2022/03/06 06:19:26;;;;;;;25.50;19.85;;;6.60;69.80;;;;;;5078269;28;20048;-61
2022/03/06 06:21:51;;;;;;;26.35;18.58;;;6.50;69.80;;;;;;5096375;28;20473;-61
2022/03/06 06:24:17;;;;;;;25.15;19.10;;;6.60;69.90;;;;;;5078142;28;20592;-61
2022/03/06 06:26:47;;;;;;;24.02;19.35;;;6.60;69.70;;;;;;5096765;28;20031;-61
2022/03/06 06:29:13;;;;;;;27.40;19.55;;;6.60;69.60;;;;;;5097218;28;20017;-62
2022/03/06 06:31:39;;;;;;;24.20;18.10;;;6.60;69.60;;;;;;5096000;28;20059;-62
2022/03/06 06:34:05;;;;;;;21.08;17.48;;;6.60;69.70;;;;;;5096883;28;20385;-60
2022/03/06 06:36:30;;;;;;;25.50;18.75;;;6.60;69.60;;;;;;5095851;28;20100;-59
2022/03/06 06:38:56;;;;;;;23.20;18.40;;;6.70;69.70;;;;;;5096547;28;20028;-58
2022/03/06 06:41:22;;;;;;;25.20;18.30;;;6.70;69.40;;;;;;5090328;28;20032;-59
2022/03/06 06:43:47;;;;;;;25.05;18.58;;;6.80;69.40;;;;;;5088214;28;20480;-58
2022/03/06 06:46:13;;;;;;;21.55;17.73;;;6.80;69.40;;;;;;5085789;28;20028;-59
2022/03/06 06:48:38;;;;;;;22.45;17.48;;;6.80;69.40;;;;;;5094233;28;20473;-58
2022/03/06 06:51:05;;;;;;;23.02;17.80;;;6.80;69.60;;;;;;5094954;28;20492;-59
2022/03/06 06:53:31;;;;;;;24.23;17.48;;;6.80;69.80;;;;;;5092254;28;20032;-59
2022/03/06 06:55:56;;;;;;;21.17;16.80;;;6.80;69.90;;;;;;5089835;28;20966;-59
2022/03/06 06:58:22;;;;;;;21.10;17.55;;;6.80;69.90;;;;;;5088790;28;20024;-59
2022/03/06 07:00:48;;;;;;;21.13;17.73;;;6.80;69.80;;;;;;5095367;28;20115;-60
2022/03/06 07:03:13;;;;;;;20.58;16.63;;;6.80;69.80;;;;;;5096072;28;20021;-59
2022/03/06 07:05:39;;;;;;;20.10;17.00;;;6.90;70.00;;;;;;5095659;28;20056;-59
2022/03/06 07:08:05;;;;;;;20.77;16.55;;;6.90;70.00;;;;;;5095151;28;20369;-59
2022/03/06 07:10:30;;;;;;;22.27;17.75;;;7.00;70.10;;;;;;5095436;28;20032;-59
2022/03/06 07:12:58;;;;;;;22.67;17.40;;;6.90;70.00;;;;;;5092920;28;20031;-59
2022/03/06 07:15:29;;;;;;;21.75;16.80;;;7.00;69.80;;;;;;5089522;28;20480;-59
2022/03/06 07:17:59;;;;;;;19.10;16.60;;;7.00;69.80;;;;;;5095927;28;20031;-59
2022/03/06 07:20:25;;;;;;;20.90;15.77;;;7.10;69.40;;;;;;5094537;28;20028;-59
2022/03/06 07:22:51;;;;;;;22.52;16.08;;;7.10;70.10;;;;;;5095404;28;20020;-59
2022/03/06 07:25:17;;;;;;;21.02;16.10;;;7.10;70.00;;;;;;5092143;28;20023;-59
2022/03/06 07:27:43;;;;;;;20.42;16.73;;;7.20;69.60;;;;;;5093606;28;20024;-59
2022/03/06 07:30:09;;;;;;;19.52;16.35;;;7.20;69.80;;;;;;5093531;28;20111;-59
2022/03/06 07:32:42;;;;;;;24.33;16.60;;;7.30;69.80;;;;;;5074210;28;20046;-60
2022/03/06 07:35:08;;;;;;;20.95;16.42;;;7.30;69.70;;;;;;5093516;28;20123;-59
2022/03/06 07:37:34;;;;;;;20.30;16.83;;;7.30;69.40;;;;;;5092380;28;20464;-61
2022/03/06 07:39:59;;;;;;;18.10;15.15;;;7.30;69.60;;;;;;5093565;28;20476;-59
2022/03/06 07:42:25;;;;;;;20.08;16.45;;;7.40;69.50;;;;;;5092737;28;20476;-59
2022/03/06 07:44:50;;;;;;;17.80;15.13;;;7.40;69.80;;;;;;5094183;28;20024;-59
2022/03/06 07:47:16;;;;;;;20.50;15.98;;;7.40;69.10;;;;;;5092975;28;20465;-62
2022/03/06 07:49:41;;;;;;;18.85;15.15;;;7.50;68.50;;;;;;5093199;28;20114;-62
2022/03/06 07:52:07;;;;;;;18.10;14.90;;;7.50;68.10;;;;;;5091233;28;20074;-60
2022/03/06 07:54:33;;;;;;;19.50;15.45;;;7.50;67.90;;;;;;5092992;28;20557;-62
2022/03/06 07:56:58;;;;;;;18.00;15.38;;;7.60;67.60;;;;;;5093164;28;20028;-61
2022/03/06 07:59:25;;;;;;;16.90;13.80;;;7.60;67.40;;;;;;5093209;28;20024;-62
2022/03/06 08:01:52;;;;;;;19.95;15.30;;;7.60;68.00;;;;;;5092547;28;20441;-62
2022/03/06 08:04:18;;;;;;;19.67;15.23;;;7.70;67.80;;;;;;5089588;28;20418;-62
2022/03/06 08:06:43;;;;;;;18.90;16.13;;;7.70;67.80;;;;;;5092144;28;20472;-61
2022/03/06 08:09:09;;;;;;;18.90;16.00;;;7.70;67.20;;;;;;5089595;28;20024;-62
2022/03/06 08:11:34;;;;;;;22.98;15.35;;;7.80;67.10;;;;;;5090009;28;20084;-62
2022/03/06 08:14:00;;;;;;;18.17;15.93;;;7.80;67.10;;;;;;5089578;28;20066;-61
2022/03/06 08:16:25;;;;;;;20.42;16.80;;;7.70;66.60;;;;;;5094707;28;20028;-60
2022/03/06 08:18:51;;;;;;;20.42;15.82;;;7.70;66.70;;;;;;5087416;28;20020;-59
2022/03/06 08:21:16;;;;;;;19.65;15.32;;;7.70;66.50;;;;;;5092268;28;20499;-61
2022/03/06 08:23:42;;;;;;;17.85;15.35;;;7.60;68.90;;;;;;5086870;28;20481;-62
2022/03/06 08:26:07;;;;;;;17.83;15.48;;;7.70;67.60;;;;;;5093002;28;20376;-59
2022/03/06 08:28:33;;;;;;;21.80;16.63;;;7.70;66.50;;;;;;5092849;28;20028;-62
2022/03/06 08:30:58;;;;;;;18.23;15.40;;;7.80;66.40;;;;;;5092317;28;20385;-62
2022/03/06 08:33:24;;;;;;;19.60;16.20;;;7.80;66.20;;;;;;5092450;28;20354;-60
2022/03/06 08:35:50;;;;;;;18.98;15.98;;;7.80;66.70;;;;;;5092517;28;20511;-62
2022/03/06 08:38:15;;;;;;;17.05;15.23;;;7.80;66.50;;;;;;5070680;28;20024;-62
2022/03/06 08:40:41;;;;;;;17.52;15.73;;;7.80;66.50;;;;;;5088076;28;20020;-60
2022/03/06 08:43:06;;;;;;;18.15;16.23;;;7.80;66.40;;;;;;5092203;28;20026;-60
2022/03/06 08:45:32;;;;;;;18.67;16.20;;;7.80;66.60;;;;;;5085745;28;20039;-59
2022/03/06 08:47:57;;;;;;;18.23;15.88;;;7.80;67.10;;;;;;5086971;28;20029;-60
2022/03/06 08:50:23;;;;;;;21.08;16.27;;;7.80;66.60;;;;;;5089206;28;20400;-61
2022/03/06 08:52:49;;;;;;;19.05;17.08;;;7.80;67.10;;;;;;5086738;28;20062;-61
2022/03/06 08:55:14;;;;;;;25.27;22.58;;;7.80;66.80;;;;;;5088136;28;20032;-55
2022/03/06 08:57:40;;;;;;;17.88;14.95;;;7.80;66.10;;;;;;5086136;28;20070;-59
2022/03/06 09:00:08;;;;;;;20.35;18.15;;;7.90;67.30;;;;;;5089076;28;20024;-61
2022/03/06 09:02:33;;;;;;;19.60;17.58;;;7.90;66.40;;;;;;5070726;28;20020;-59
2022/03/06 09:04:59;;;;;;;20.50;17.10;;;7.90;66.00;;;;;;5072199;28;20020;-62
2022/03/06 09:07:24;;;;;;;21.02;16.15;;;7.90;65.90;;;;;;5089956;28;20034;-62
2022/03/06 09:09:50;;;;;;;17.00;15.18;;;7.90;65.90;;;;;;5089455;28;20035;-59
2022/03/06 09:12:16;;;;;;;18.05;14.88;;;8.00;67.20;;;;;;5090608;28;20020;-65
2022/03/06 09:14:41;;;;;;;16.92;15.13;;;7.90;66.50;;;;;;5087642;28;20095;-62
2022/03/06 09:17:09;;;;;;;18.60;15.82;;;8.00;66.40;;;;;;5090688;28;20489;-65
2022/03/06 09:19:35;;;;;;;16.17;14.45;;;8.00;65.90;;;;;;5085117;28;20070;-60
2022/03/06 09:22:00;;;;;;;16.00;14.32;;;8.00;66.90;;;;;;5089891;28;20024;-69
2022/03/06 09:24:26;;;;;;;15.98;12.75;;;8.10;67.30;;;;;;5088529;28;20500;-70
2022/03/06 09:26:52;;;;;;;19.30;15.30;;;8.20;69.80;;;;;;5090911;28;20472;-65
2022/03/06 09:29:17;;;;;;;19.45;14.82;;;8.20;65.80;;;;;;5089389;28;20562;-71
2022/03/06 09:31:44;;;;;;;18.20;15.73;;;8.20;66.30;;;;;;5090630;28;20529;-67
2022/03/06 09:34:11;;;;;;;18.10;15.73;;;8.20;65.30;;;;;;5091200;28;20027;-69
2022/03/06 09:36:37;;;;;;;16.52;14.82;;;8.20;66.00;;;;;;5083821;28;20035;-70
2022/03/06 09:39:05;;;;;;;17.05;14.85;;;8.20;65.00;;;;;;5088513;28;20024;-69
2022/03/06 09:41:31;;;;;;;16.73;14.93;;;8.20;64.40;;;;;;5088867;28;20020;-70
2022/03/06 09:43:57;;;;;;;16.08;14.43;;;8.20;64.30;;;;;;5085813;28;20016;-68
2022/03/06 09:46:24;;;;;;;16.40;13.90;;;8.20;66.20;;;;;;5084834;28;20063;-71
2022/03/06 09:48:50;;;;;;;16.42;14.57;;;8.20;64.60;;;;;;5083365;28;20105;-65
2022/03/06 09:51:16;;;;;;;16.42;14.73;;;8.30;64.30;;;;;;5084738;28;20082;-71
2022/03/06 09:53:42;;;;;;;16.10;14.13;;;8.30;64.20;;;;;;5084161;28;20429;-66
2022/03/06 09:56:07;;;;;;;16.02;14.32;;;8.30;64.40;;;;;;5084801;28;20039;-68
2022/03/06 09:58:33;;;;;;;15.52;13.73;;;8.30;64.30;;;;;;5083497;28;20032;-69
2022/03/06 10:00:59;;;;;;;18.67;14.23;;;8.30;66.00;;;;;;5086442;28;20032;-70
2022/03/06 10:03:25;;;;;;;15.40;13.57;;;8.30;63.80;;;;;;5087450;28;20028;-70
2022/03/06 10:05:51;;;;;;;15.68;13.30;;;8.40;62.50;;;;;;5088143;28;20047;-63
2022/03/06 10:08:27;;;;;;;16.00;14.18;;;8.30;63.40;;;;;;5084827;28;20388;-64
2022/03/06 10:10:57;;;;;;;14.88;13.27;;;8.30;62.20;;;;;;5091049;28;20115;-71
2022/03/06 10:13:35;;;;;;;15.60;13.30;;;8.30;62.30;;;;;;5087569;28;20023;-66
2022/03/06 10:16:07;;;;;;;13.60;12.20;;;8.40;63.40;;;;;;5089650;28;20364;-72
2022/03/06 10:18:40;;;;;;;15.10;13.05;;;8.40;61.10;;;;;;5086074;28;20098;-64
2022/03/06 10:21:18;;;;;;;14.75;12.52;;;8.30;60.90;;;;;;5085053;28;20265;-62
2022/03/06 10:23:46;;;;;;;16.20;12.02;;;8.30;61.50;;;;;;5086723;28;20481;-66
2022/03/06 10:26:13;;;;;;;14.38;12.05;;;8.40;61.70;;;;;;5065972;28;20451;-64
2022/03/06 10:28:43;;;;;;;14.60;11.95;;;8.40;60.90;;;;;;5085334;28;20038;-72
2022/03/06 10:31:09;;;;;;;14.95;12.35;;;8.40;60.50;;;;;;5088321;28;20134;-65
2022/03/06 10:33:35;;;;;;;15.30;12.75;;;8.40;60.80;;;;;;5087344;28;20095;-64
2022/03/06 10:36:02;;;;;;;16.20;12.32;;;8.50;60.60;;;;;;5087926;28;20400;-62
2022/03/06 10:38:37;;;;;;;14.27;11.55;;;8.50;59.90;;;;;;5082466;28;20082;-61
2022/03/06 10:41:10;;;;;;;12.90;11.50;;;8.50;60.40;;;;;;5081833;28;20031;-63
2022/03/06 10:43:36;;;;;;;14.90;12.70;;;8.50;60.50;;;;;;5076458;28;20499;-67
2022/03/06 10:46:10;;;;;;;14.52;13.02;;;8.50;61.10;;;;;;5083654;28;20125;-69
2022/03/06 10:48:37;;;;;;;14.13;12.63;;;8.60;60.50;;;;;;5089363;28;20032;-61
2022/03/06 10:51:06;;;;;;;13.65;11.57;;;8.60;60.50;;;;;;5088015;28;20028;-62
2022/03/06 10:53:32;;;;;;;12.85;11.45;;;8.60;60.80;;;;;;5089679;28;20027;-65
2022/03/06 10:56:14;;;;;;;13.82;11.98;;;8.60;58.50;;;;;;5088308;28;20024;-69
2022/03/06 10:58:43;;;;;;;12.60;11.23;;;8.60;58.40;;;;;;5088114;28;20028;-64
2022/03/06 11:01:10;;;;;;;13.75;11.05;;;8.60;58.90;;;;;;5090960;28;20063;-64
2022/03/06 11:03:36;;;;;;;12.13;10.90;;;8.60;58.70;;;;;;5091251;28;20074;-61
2022/03/06 11:06:03;;;;;;;16.40;11.80;;;8.60;58.10;;;;;;5091696;28;20492;-62
2022/03/06 11:08:30;;;;;;;13.32;11.93;;;8.70;57.70;;;;;;5092251;28;20039;-64
2022/03/06 11:10:56;;;;;;;13.57;12.15;;;8.60;57.60;;;;;;5085806;28;20743;-63
2022/03/06 11:13:23;;;;;;;12.32;10.70;;;8.70;58.40;;;;;;5088716;28;20054;-61
2022/03/06 11:15:49;;;;;;;15.30;11.02;;;8.70;58.80;;;;;;5089265;28;20016;-61
2022/03/06 11:18:16;;;;;;;12.75;11.35;;;8.70;58.40;;;;;;5090192;28;20031;-66
2022/03/06 11:20:44;;;;;;;13.27;11.88;;;8.80;58.70;;;;;;5075062;28;20481;-60
2022/03/06 11:23:28;;;;;;;14.05;12.00;;;8.80;58.90;;;;;;5086601;28;20035;-61
2022/03/06 11:26:02;;;;;;;12.88;11.45;;;8.90;59.50;;;;;;5084336;28;20491;-65
2022/03/06 11:29:07;;;;;;;13.55;12.15;;;9.00;58.80;;;;;;5070731;28;20089;-69
2022/03/06 11:31:43;;;;;;;12.25;11.10;;;8.90;58.90;;;;;;5084425;28;20111;-64
2022/03/06 11:34:10;;;;;;;15.10;10.93;;;8.90;58.30;;;;;;5086023;28;20024;-67
2022/03/06 11:36:49;;;;;;;14.27;10.68;;;9.00;57.40;;;;;;5088025;28;20533;-61
2022/03/06 11:39:35;;;;;;;15.10;12.52;;;9.00;58.30;;;;;;5066416;28;20466;-68
2022/03/06 11:42:05;;;;;;;10.80;9.70;;;9.00;57.50;;;;;;5088722;28;20032;-59
2022/03/06 11:44:33;;;;;;;13.40;11.55;;;9.00;60.10;;;;;;5083051;28;20035;-68
2022/03/06 11:46:59;;;;;;;15.80;11.95;;;9.10;57.10;;;;;;5065894;28;20020;-74
2022/03/06 11:49:34;;;;;;;14.10;12.63;;;9.00;57.10;;;;;;5090069;28;20026;-62
2022/03/06 11:52:00;;;;;;;12.77;11.38;;;9.00;57.10;;;;;;5086463;28;20515;-61
2022/03/06 11:54:41;;;;;;;13.48;11.60;;;9.00;58.00;;;;;;5090464;28;20461;-64
2022/03/06 11:57:07;;;;;;;13.18;11.85;;;9.10;57.60;;;;;;5087935;28;20115;-65
2022/03/06 11:59:35;;;;;;;14.40;12.13;;;9.10;57.20;;;;;;5085251;28;20532;-60
2022/03/06 12:02:08;;;;;;;13.73;12.30;;;9.10;58.00;;;;;;5085536;28;20013;-63
2022/03/06 12:04:37;;;;;;;13.15;11.80;;;9.10;57.60;;;;;;5084919;28;20032;-65
2022/03/06 12:07:04;;;;;;;14.77;12.20;;;9.10;57.70;;;;;;5080238;28;20306;-62
2022/03/06 12:09:32;;;;;;;14.27;12.55;;;9.20;56.80;;;;;;5082061;28;20027;-60
2022/03/06 12:12:01;;;;;;;13.65;12.07;;;9.20;56.50;;;;;;5081084;28;20387;-62
2022/03/06 12:14:35;;;;;;;15.63;12.85;;;9.20;57.50;;;;;;5064516;28;20024;-62
2022/03/06 12:17:01;;;;;;;15.70;12.57;;;9.30;58.30;;;;;;5081484;28;20558;-66
2022/03/06 12:19:32;;;;;;;13.45;12.15;;;9.30;57.50;;;;;;5084053;28;20465;-61
2022/03/06 12:22:10;;;;;;;16.52;11.70;;;9.30;58.10;;;;;;5082560;28;20480;-60
2022/03/06 12:24:36;;;;;;;13.05;11.50;;;9.30;58.90;;;;;;5081188;28;20016;-60
2022/03/06 12:27:12;;;;;;;15.73;11.80;;;9.40;60.00;;;;;;5079242;28;20016;-65
2022/03/06 12:29:51;;;;;;;15.35;12.93;;;9.40;58.10;;;;;;5081045;28;20101;-62
2022/03/06 12:32:29;;;;;;;14.43;12.48;;;9.50;56.70;;;;;;5085599;28;20035;-66
2022/03/06 12:35:01;;;;;;;13.90;12.50;;;9.50;57.00;;;;;;5083569;28;20481;-61
2022/03/06 12:37:37;;;;;;;13.75;11.80;;;9.50;57.70;;;;;;5086003;28;20136;-62